createdAt,value
2023-04-18T00:00:04.691Z,45.55
2023-04-18T00:01:04.760Z,45.56
2023-04-18T00:02:04.803Z,45.61
2023-04-18T00:03:05.119Z,45.42
2023-04-18T00:04:04.851Z,45.53
2023-04-18T00:05:04.789Z,45.54
2023-04-18T00:06:05.787Z,45.45
2023-04-18T00:07:05.813Z,45.47
2023-04-18T00:08:05.811Z,45.38
2023-04-18T00:09:05.830Z,45.44
2023-04-18T00:10:05.850Z,45.42
2023-04-18T00:11:05.831Z,45.50
2023-04-18T00:12:05.862Z,45.50
2023-04-18T00:13:05.866Z,45.50
2023-04-18T00:14:05.891Z,45.55
2023-04-18T00:15:05.932Z,45.40
2023-04-18T00:16:05.934Z,45.48
2023-04-18T00:17:04.994Z,45.41
2023-04-18T00:18:06.155Z,45.53
2023-04-18T00:19:04.970Z,45.54
2023-04-18T00:20:05.983Z,45.54
2023-04-18T00:21:05.988Z,45.53
2023-04-18T00:22:06.064Z,45.44
2023-04-18T00:23:06.044Z,45.47
2023-04-18T00:24:06.050Z,45.47
2023-04-18T00:25:06.054Z,45.38
2023-04-18T00:26:06.097Z,45.40
2023-04-18T00:27:05.109Z,45.41
2023-04-18T00:28:06.142Z,45.33
2023-04-18T00:29:06.129Z,45.50
2023-04-18T00:30:06.145Z,45.49
2023-04-18T00:31:05.177Z,45.43
2023-04-18T00:32:05.211Z,45.39
2023-04-18T00:33:06.279Z,45.39
2023-04-18T00:34:05.210Z,45.32
2023-04-18T00:35:06.300Z,45.45
2023-04-18T00:36:06.271Z,45.42
2023-04-18T00:37:05.297Z,45.37
2023-04-18T00:38:06.318Z,45.39
2023-04-18T00:39:06.346Z,45.31
2023-04-18T00:40:06.368Z,45.31
2023-04-18T00:41:05.434Z,45.31
2023-04-18T00:42:05.495Z,45.30
2023-04-18T00:43:06.456Z,45.39
2023-04-18T00:44:06.485Z,45.37
2023-04-18T00:45:05.536Z,45.34
2023-04-18T00:46:05.597Z,45.37
2023-04-18T00:47:05.611Z,45.41
2023-04-18T00:48:06.659Z,45.39
2023-04-18T00:49:06.597Z,45.49
2023-04-18T00:50:06.626Z,45.49
2023-04-18T00:51:06.635Z,45.37
2023-04-18T00:52:06.899Z,45.43
2023-04-18T00:53:06.686Z,45.48
2023-04-18T00:54:05.706Z,45.34
2023-04-18T00:55:06.744Z,45.48
2023-04-18T00:56:05.767Z,45.30
2023-04-18T00:57:05.775Z,45.37
2023-04-18T00:58:06.860Z,45.43
2023-04-18T00:59:05.825Z,45.29
2023-04-18T01:00:05.829Z,45.42
2023-04-18T01:01:06.902Z,45.42
2023-04-18T01:02:06.982Z,45.30
2023-04-18T01:03:07.067Z,45.33
2023-04-18T01:04:06.962Z,45.34
2023-04-18T01:05:06.948Z,45.31
2023-04-18T01:06:05.972Z,45.44
2023-04-18T01:07:06.021Z,45.36
2023-04-18T01:08:07.016Z,45.26
2023-04-18T01:09:06.033Z,45.28
2023-04-18T01:10:07.057Z,45.20
2023-04-18T01:11:07.089Z,45.16
2023-04-18T01:12:07.108Z,45.42
2023-04-18T01:13:07.141Z,45.32
2023-04-18T01:14:06.315Z,45.23
2023-04-18T01:15:07.158Z,45.40
2023-04-18T01:16:06.210Z,45.24
2023-04-18T01:17:07.211Z,45.29
2023-04-18T01:18:06.252Z,45.30
2023-04-18T01:19:06.288Z,45.19
2023-04-18T01:20:07.289Z,45.31
2023-04-18T01:21:07.300Z,45.30
2023-04-18T01:22:06.334Z,45.27
2023-04-18T01:23:06.387Z,45.41
2023-04-18T01:24:07.432Z,45.35
2023-04-18T01:25:07.474Z,45.27
2023-04-18T01:26:07.461Z,45.10
2023-04-18T01:27:07.487Z,45.23
2023-04-18T01:28:07.530Z,45.28
2023-04-18T01:29:06.549Z,45.22
2023-04-18T01:30:07.595Z,45.14
2023-04-18T01:31:06.661Z,45.30
2023-04-18T01:32:06.615Z,45.21
2023-04-18T01:33:06.727Z,45.03
2023-04-18T01:34:07.735Z,45.05
2023-04-18T01:35:06.696Z,45.00
2023-04-18T01:36:07.717Z,44.97
2023-04-18T01:37:07.756Z,44.92
2023-04-18T01:38:07.805Z,44.88
2023-04-18T01:39:07.802Z,44.85
2023-04-18T01:40:06.808Z,44.75
2023-04-18T01:41:07.846Z,44.62
2023-04-18T01:42:07.946Z,44.53
2023-04-18T01:43:07.949Z,44.50
2023-04-18T01:44:06.910Z,44.36
2023-04-18T01:45:06.936Z,44.36
2023-04-18T01:46:07.119Z,44.19
2023-04-18T01:47:06.966Z,44.21
2023-04-18T01:48:06.994Z,44.16
2023-04-18T01:49:08.010Z,44.08
2023-04-18T01:50:08.007Z,44.07
2023-04-18T01:51:07.992Z,44.04
2023-04-18T01:52:07.991Z,44.02
2023-04-18T01:53:08.029Z,43.93
2023-04-18T01:54:08.034Z,43.83
2023-04-18T01:55:08.043Z,43.82
2023-04-18T01:56:07.009Z,43.70
2023-04-18T01:57:06.993Z,43.61
2023-04-18T01:58:08.006Z,43.64
2023-04-18T01:59:07.012Z,43.61
2023-04-18T02:00:07.017Z,43.56
2023-04-18T02:01:08.062Z,43.50
2023-04-18T02:02:08.189Z,43.46
2023-04-18T02:03:08.255Z,43.49
2023-04-18T02:04:07.284Z,43.45
2023-04-18T02:05:07.208Z,43.45
2023-04-18T02:06:08.260Z,43.38
2023-04-18T02:07:07.323Z,43.37
2023-04-18T02:08:08.426Z,43.34
2023-04-18T02:09:08.453Z,43.32
2023-04-18T02:10:08.529Z,43.33
2023-04-18T02:11:08.592Z,43.30
2023-04-18T02:12:07.652Z,43.22
2023-04-18T02:13:08.685Z,43.24
2023-04-18T02:14:08.726Z,43.22
2023-04-18T02:15:08.785Z,43.18
2023-04-18T02:16:08.862Z,43.16
2023-04-18T02:17:07.937Z,43.12
2023-04-18T02:18:08.988Z,43.12
2023-04-18T02:19:08.998Z,43.09
2023-04-18T02:20:09.055Z,43.07
2023-04-18T02:21:09.112Z,43.08
2023-04-18T02:22:08.173Z,43.02
2023-04-18T02:23:09.244Z,43.00
2023-04-18T02:24:08.282Z,43.02
2023-04-18T02:25:09.328Z,42.98
2023-04-18T02:26:09.370Z,42.91
2023-04-18T02:27:09.428Z,42.94
2023-04-18T02:28:08.472Z,42.88
2023-04-18T02:29:09.531Z,42.88
2023-04-18T02:30:09.625Z,42.90
2023-04-18T02:31:08.621Z,42.86
2023-04-18T02:32:08.763Z,42.78
2023-04-18T02:33:09.735Z,42.81
2023-04-18T02:34:08.812Z,42.75
2023-04-18T02:35:09.835Z,42.75
2023-04-18T02:36:09.853Z,42.77
2023-04-18T02:37:08.927Z,42.74
2023-04-18T02:38:10.006Z,42.71
2023-04-18T02:39:09.011Z,42.69
2023-04-18T02:40:09.072Z,42.65
2023-04-18T02:41:10.111Z,42.63
2023-04-18T02:42:09.148Z,42.62
2023-04-18T02:43:10.204Z,42.63
2023-04-18T02:44:10.249Z,42.61
2023-04-18T02:45:10.287Z,42.59
2023-04-18T02:46:10.407Z,42.60
2023-04-18T02:47:10.384Z,42.53
2023-04-18T02:48:10.428Z,42.55
2023-04-18T02:49:10.578Z,42.55
2023-04-18T02:50:10.521Z,42.47
2023-04-18T02:51:10.498Z,42.47
2023-04-18T02:52:10.558Z,42.50
2023-04-18T02:53:11.496Z,42.41
2023-04-18T02:54:10.613Z,42.47
2023-04-18T02:55:10.666Z,42.41
2023-04-18T02:56:09.687Z,42.39
2023-04-18T02:57:09.716Z,42.36
2023-04-18T02:58:10.739Z,42.31
2023-04-18T02:59:10.752Z,42.33
2023-04-18T03:00:10.775Z,42.32
2023-04-18T03:01:10.889Z,42.38
2023-04-18T03:02:10.861Z,42.32
2023-04-18T03:03:09.919Z,42.29
2023-04-18T03:04:09.937Z,42.28
2023-04-18T03:05:10.961Z,42.25
2023-04-18T03:06:10.992Z,42.21
2023-04-18T03:07:10.992Z,42.23
2023-04-18T03:08:10.012Z,42.25
2023-04-18T03:09:11.047Z,42.25
2023-04-18T03:10:10.067Z,42.24
2023-04-18T03:11:11.116Z,42.23
2023-04-18T03:12:11.115Z,42.24
2023-04-18T03:13:10.182Z,42.21
2023-04-18T03:14:11.534Z,42.17
2023-04-18T03:15:11.223Z,42.18
2023-04-18T03:16:10.333Z,42.15
2023-04-18T03:17:11.257Z,42.13
2023-04-18T03:18:10.295Z,42.19
2023-04-18T03:19:11.370Z,42.15
2023-04-18T03:20:11.365Z,42.21
2023-04-18T03:21:11.427Z,42.19
2023-04-18T03:22:11.418Z,42.15
2023-04-18T03:23:11.449Z,42.17
2023-04-18T03:24:12.361Z,42.15
2023-04-18T03:25:11.529Z,42.21
2023-04-18T03:26:11.524Z,42.17
2023-04-18T03:27:11.569Z,42.16
2023-04-18T03:28:10.561Z,42.08
2023-04-18T03:29:11.599Z,42.06
2023-04-18T03:30:11.645Z,42.10
2023-04-18T03:31:11.681Z,42.10
2023-04-18T03:32:10.657Z,42.10
2023-04-18T03:33:11.723Z,42.06
2023-04-18T03:34:11.941Z,42.09
2023-04-18T03:35:10.759Z,42.06
2023-04-18T03:36:11.792Z,42.09
2023-04-18T03:37:10.792Z,42.08
2023-04-18T03:38:11.837Z,42.07
2023-04-18T03:39:11.877Z,42.11
2023-04-18T03:40:11.853Z,42.07
2023-04-18T03:41:10.895Z,42.05
2023-04-18T03:42:10.901Z,42.05
2023-04-18T03:43:11.926Z,42.06
2023-04-18T03:44:11.097Z,42.02
2023-04-18T03:45:10.967Z,42.03
2023-04-18T03:46:12.005Z,42.07
2023-04-18T03:47:11.017Z,42.00
2023-04-18T03:48:11.066Z,42.04
2023-04-18T03:49:11.083Z,42.00
2023-04-18T03:50:12.058Z,41.98
2023-04-18T03:51:12.090Z,42.00
2023-04-18T03:52:12.118Z,41.94
2023-04-18T03:53:12.118Z,41.98
2023-04-18T03:54:11.336Z,41.93
2023-04-18T03:55:11.169Z,41.92
2023-04-18T03:56:12.174Z,41.91
2023-04-18T03:57:12.187Z,41.94
2023-04-18T03:58:12.228Z,41.97
2023-04-18T03:59:12.233Z,41.96
2023-04-18T04:00:12.222Z,41.91
2023-04-18T04:01:12.264Z,41.94
2023-04-18T04:02:12.309Z,41.92
2023-04-18T04:03:12.429Z,41.95
2023-04-18T04:04:11.401Z,41.96
2023-04-18T04:05:11.322Z,41.91
2023-04-18T04:06:12.327Z,41.98
2023-04-18T04:07:12.326Z,41.94
2023-04-18T04:08:12.335Z,41.95
2023-04-18T04:09:12.356Z,41.93
2023-04-18T04:10:11.427Z,41.93
2023-04-18T04:11:12.428Z,41.94
2023-04-18T04:12:12.444Z,41.93
2023-04-18T04:13:12.466Z,41.94
2023-04-18T04:14:12.775Z,41.98
2023-04-18T04:15:12.514Z,41.97
2023-04-18T04:16:12.573Z,42.02
2023-04-18T04:17:11.549Z,41.97
2023-04-18T04:18:11.571Z,41.96
2023-04-18T04:19:12.613Z,41.97
2023-04-18T04:20:11.623Z,42.02
2023-04-18T04:21:12.645Z,42.03
2023-04-18T04:22:12.682Z,41.94
2023-04-18T04:23:11.713Z,41.97
2023-04-18T04:24:12.983Z,41.96
2023-04-18T04:25:11.786Z,42.01
2023-04-18T04:26:12.836Z,41.98
2023-04-18T04:27:12.832Z,41.99
2023-04-18T04:28:12.844Z,41.92
2023-04-18T04:29:12.880Z,41.96
2023-04-18T04:30:13.417Z,41.93
2023-04-18T04:31:11.947Z,42.02
2023-04-18T04:32:13.121Z,41.99
2023-04-18T04:33:12.996Z,42.00
2023-04-18T04:34:13.244Z,42.01
2023-04-18T04:35:12.084Z,42.02
2023-04-18T04:36:13.108Z,42.02
2023-04-18T04:37:12.152Z,42.03
2023-04-18T04:38:13.161Z,42.06
2023-04-18T04:39:13.181Z,42.01
2023-04-18T04:40:13.211Z,41.98
2023-04-18T04:41:13.208Z,42.00
2023-04-18T04:42:13.296Z,41.93
2023-04-18T04:43:12.268Z,41.92
2023-04-18T04:44:13.642Z,41.91
2023-04-18T04:45:12.328Z,41.87
2023-04-18T04:46:12.385Z,41.94
2023-04-18T04:47:13.382Z,41.91
2023-04-18T04:48:13.393Z,41.86
2023-04-18T04:49:12.470Z,41.84
2023-04-18T04:50:12.493Z,41.86
2023-04-18T04:51:12.485Z,41.81
2023-04-18T04:52:13.511Z,41.78
2023-04-18T04:53:13.532Z,41.83
2023-04-18T04:54:14.053Z,41.86
2023-04-18T04:55:13.691Z,41.83
2023-04-18T04:56:13.645Z,41.79
2023-04-18T04:57:13.708Z,41.78
2023-04-18T04:58:13.692Z,41.69
2023-04-18T04:59:13.690Z,41.76
2023-04-18T05:00:13.724Z,41.77
2023-04-18T05:01:13.861Z,41.72
2023-04-18T05:02:13.828Z,41.76
2023-04-18T05:03:14.004Z,41.77
2023-04-18T05:04:13.103Z,41.73
2023-04-18T05:05:13.821Z,41.75
2023-04-18T05:06:13.819Z,41.80
2023-04-18T05:07:12.861Z,41.80
2023-04-18T05:08:12.878Z,41.78
2023-04-18T05:09:12.922Z,41.73
2023-04-18T05:10:12.906Z,41.73
2023-04-18T05:11:12.928Z,41.68
2023-04-18T05:12:12.957Z,41.70
2023-04-18T05:13:12.987Z,41.73
2023-04-18T05:14:13.367Z,41.73
2023-04-18T05:15:14.014Z,41.69
2023-04-18T05:16:13.033Z,41.74
2023-04-18T05:17:14.027Z,41.74
2023-04-18T05:18:14.028Z,41.76
2023-04-18T05:19:14.099Z,41.73
2023-04-18T05:20:14.109Z,41.71
2023-04-18T05:21:13.096Z,41.71
2023-04-18T05:22:14.127Z,41.73
2023-04-18T05:23:14.161Z,41.71
2023-04-18T05:24:14.496Z,41.73
2023-04-18T05:25:13.193Z,41.76
2023-04-18T05:26:14.250Z,41.73
2023-04-18T05:27:13.226Z,41.73
2023-04-18T05:28:14.284Z,41.71
2023-04-18T05:29:13.473Z,41.75
2023-04-18T05:30:13.320Z,41.74
2023-04-18T05:31:14.388Z,41.69
2023-04-18T05:32:13.401Z,41.63
2023-04-18T05:33:14.415Z,41.68
2023-04-18T05:34:14.679Z,41.75
2023-04-18T05:35:14.427Z,41.81
2023-04-18T05:36:14.440Z,41.80
2023-04-18T05:37:14.430Z,41.85
2023-04-18T05:38:14.400Z,41.98
2023-04-18T05:39:13.415Z,41.98
2023-04-18T05:40:13.431Z,42.00
2023-04-18T05:41:13.525Z,41.47
2023-04-18T05:42:14.487Z,39.96
2023-04-18T05:43:14.581Z,39.92
2023-04-18T05:44:14.602Z,40.19
2023-04-18T05:45:14.555Z,40.32
2023-04-18T05:46:13.648Z,40.26
2023-04-18T05:47:14.549Z,40.12
2023-04-18T05:48:13.688Z,40.09
2023-04-18T05:49:13.770Z,41.03
2023-04-18T05:50:14.864Z,41.28
2023-04-18T05:51:14.909Z,41.36
2023-04-18T05:52:14.952Z,41.19
2023-04-18T05:53:17.827Z,43.05
2023-04-18T05:54:15.069Z,45.39
2023-04-18T05:55:15.361Z,46.42
2023-04-18T05:56:15.121Z,45.99
2023-04-18T05:57:13.944Z,45.38
2023-04-18T05:58:14.933Z,45.52
2023-04-18T05:59:13.993Z,45.10
2023-04-18T06:00:14.950Z,50.27
2023-04-18T06:01:14.901Z,47.00
2023-04-18T06:02:15.024Z,45.51
2023-04-18T06:03:14.006Z,44.50
2023-04-18T06:04:14.289Z,44.14
2023-04-18T06:05:15.049Z,43.59
2023-04-18T06:06:13.863Z,43.36
2023-04-18T06:07:14.864Z,43.28
2023-04-18T06:08:13.870Z,43.09
2023-04-18T06:09:13.859Z,42.81
2023-04-18T06:10:13.847Z,42.81
2023-04-18T06:11:14.867Z,42.67
2023-04-18T06:12:13.870Z,42.44
2023-04-18T06:13:14.827Z,42.34
2023-04-18T06:14:15.187Z,42.42
2023-04-18T06:15:15.009Z,42.38
2023-04-18T06:16:14.866Z,42.20
2023-04-18T06:17:13.832Z,42.30
2023-04-18T06:18:14.811Z,42.31
2023-04-18T06:19:13.795Z,42.43
2023-04-18T06:20:14.812Z,42.40
2023-04-18T06:21:14.829Z,42.43
2023-04-18T06:22:14.869Z,42.45
2023-04-18T06:23:14.939Z,42.25
2023-04-18T06:24:15.335Z,42.55
2023-04-18T06:25:13.974Z,42.53
2023-04-18T06:26:15.069Z,42.48
2023-04-18T06:27:24.406Z,42.59
2023-04-18T06:28:14.994Z,42.48
2023-04-18T06:29:14.979Z,42.51
2023-04-18T06:30:15.021Z,42.55
2023-04-18T06:31:15.043Z,42.39
2023-04-18T06:32:13.964Z,42.58
2023-04-18T06:33:13.939Z,42.67
2023-04-18T06:34:15.454Z,42.73
2023-04-18T06:35:14.945Z,42.82
2023-04-18T06:36:13.947Z,43.05
2023-04-18T06:37:14.950Z,42.94
2023-04-18T06:38:14.946Z,43.08
2023-04-18T06:39:14.024Z,43.08
2023-04-18T06:40:13.936Z,43.33
2023-04-18T06:41:14.909Z,43.29
2023-04-18T06:42:14.909Z,43.41
2023-04-18T06:43:13.967Z,43.35
2023-04-18T06:44:15.015Z,43.44
2023-04-18T06:45:14.886Z,43.63
2023-04-18T06:46:14.926Z,43.51
2023-04-18T06:47:14.865Z,43.49
2023-04-18T06:48:14.873Z,43.70
2023-04-18T06:49:15.014Z,43.62
2023-04-18T06:50:15.010Z,43.93
2023-04-18T06:51:15.109Z,43.91
2023-04-18T06:52:14.122Z,44.68
2023-04-18T06:53:15.083Z,43.28
2023-04-18T06:54:15.257Z,43.71
2023-04-18T06:55:15.218Z,43.76
2023-04-18T06:56:14.592Z,43.75
2023-04-18T06:57:15.269Z,43.86
2023-04-18T06:58:15.390Z,43.82
2023-04-18T06:59:15.404Z,43.48
2023-04-18T07:00:14.422Z,43.71
2023-04-18T07:01:15.577Z,43.73
2023-04-18T07:02:14.580Z,43.35
2023-04-18T07:03:15.734Z,43.52
2023-04-18T07:04:14.872Z,43.62
2023-04-18T07:05:15.561Z,43.71
2023-04-18T07:06:15.598Z,43.62
2023-04-18T07:07:14.567Z,43.62
2023-04-18T07:08:14.549Z,43.74
2023-04-18T07:09:15.559Z,43.60
2023-04-18T07:10:15.594Z,43.71
2023-04-18T07:11:15.627Z,43.81
2023-04-18T07:12:14.654Z,43.85
2023-04-18T07:13:15.624Z,43.88
2023-04-18T07:14:15.848Z,43.73
2023-04-18T07:15:15.662Z,43.84
2023-04-18T07:16:15.856Z,43.78
2023-04-18T07:17:15.831Z,43.79
2023-04-18T07:18:23.276Z,43.80
2023-04-18T07:19:15.721Z,43.72
2023-04-18T07:20:15.745Z,43.78
2023-04-18T07:21:15.811Z,43.72
2023-04-18T07:22:14.751Z,43.71
2023-04-18T07:23:15.699Z,43.64
2023-04-18T07:24:15.994Z,43.59
2023-04-18T07:25:15.746Z,43.65
2023-04-18T07:26:15.778Z,43.64
2023-04-18T07:27:15.675Z,43.56
2023-04-18T07:28:14.653Z,43.60
2023-04-18T07:29:15.700Z,43.60
2023-04-18T07:30:15.656Z,43.56
2023-04-18T07:31:15.682Z,43.50
2023-04-18T07:32:14.659Z,43.54
2023-04-18T07:33:15.632Z,43.57
2023-04-18T07:34:15.894Z,43.52
2023-04-18T07:35:15.634Z,43.50
2023-04-18T07:36:16.274Z,43.46
2023-04-18T07:37:15.624Z,43.39
2023-04-18T07:38:15.677Z,43.41
2023-04-18T07:39:15.713Z,43.45
2023-04-18T07:40:14.732Z,43.48
2023-04-18T07:41:14.761Z,43.39
2023-04-18T07:42:15.719Z,43.38
2023-04-18T07:43:15.755Z,43.42
2023-04-18T07:44:16.005Z,43.40
2023-04-18T07:45:14.796Z,43.36
2023-04-18T07:46:16.015Z,43.32
2023-04-18T07:47:15.852Z,42.99
2023-04-18T07:48:15.941Z,43.38
2023-04-18T07:49:16.162Z,43.65
2023-04-18T07:50:16.007Z,43.42
2023-04-18T07:51:16.369Z,43.42
2023-04-18T07:52:15.019Z,43.31
2023-04-18T07:53:16.307Z,43.24
2023-04-18T07:54:15.262Z,43.22
2023-04-18T07:55:16.062Z,43.18
2023-04-18T07:56:16.087Z,43.21
2023-04-18T07:57:15.144Z,43.20
2023-04-18T07:58:16.112Z,43.17
2023-04-18T07:59:16.462Z,43.17
2023-04-18T08:00:16.155Z,43.13
2023-04-18T08:01:16.143Z,43.06
2023-04-18T08:02:16.306Z,43.12
2023-04-18T08:03:15.480Z,43.05
2023-04-18T08:04:15.320Z,43.03
2023-04-18T08:05:16.602Z,43.05
2023-04-18T08:06:15.213Z,43.08
2023-04-18T08:07:16.361Z,43.00
2023-04-18T08:08:16.260Z,43.03
2023-04-18T08:09:16.416Z,43.04
2023-04-18T08:10:15.518Z,42.94
2023-04-18T08:11:15.299Z,42.96
2023-04-18T08:12:15.376Z,42.94
2023-04-18T08:13:16.336Z,42.87
2023-04-18T08:14:15.367Z,42.91
2023-04-18T08:15:16.528Z,42.92
2023-04-18T08:16:17.480Z,42.95
2023-04-18T08:17:16.400Z,42.92
2023-04-18T08:18:16.455Z,42.87
2023-04-18T08:19:15.713Z,42.85
2023-04-18T08:20:15.517Z,42.83
2023-04-18T08:21:16.477Z,42.84
2023-04-18T08:22:15.576Z,42.74
2023-04-18T08:23:15.478Z,42.81
2023-04-18T08:24:16.572Z,42.84
2023-04-18T08:25:15.520Z,42.78
2023-04-18T08:26:15.617Z,42.79
2023-04-18T08:27:17.768Z,42.72
2023-04-18T08:28:16.791Z,42.73
2023-04-18T08:29:16.645Z,42.66
2023-04-18T08:30:16.617Z,42.67
2023-04-18T08:31:15.677Z,42.71
2023-04-18T08:32:16.617Z,42.70
2023-04-18T08:33:16.652Z,42.67
2023-04-18T08:34:16.712Z,42.70
2023-04-18T08:35:16.742Z,42.71
2023-04-18T08:36:16.701Z,42.62
2023-04-18T08:37:16.716Z,42.57
2023-04-18T08:38:16.720Z,42.59
2023-04-18T08:39:15.950Z,42.57
2023-04-18T08:40:16.805Z,42.58
2023-04-18T08:41:16.146Z,42.49
2023-04-18T08:42:16.907Z,42.50
2023-04-18T08:43:16.802Z,42.53
2023-04-18T08:44:16.829Z,41.59
2023-04-18T08:45:16.035Z,42.67
2023-04-18T08:46:15.981Z,42.73
2023-04-18T08:47:15.985Z,42.49
2023-04-18T08:48:17.005Z,42.45
2023-04-18T08:49:17.328Z,42.25
2023-04-18T08:50:17.048Z,42.34
2023-04-18T08:51:17.077Z,42.59
2023-04-18T08:52:17.081Z,42.41
2023-04-18T08:53:17.077Z,42.68
2023-04-18T08:54:17.317Z,42.55
2023-04-18T08:55:17.221Z,42.69
2023-04-18T08:56:17.138Z,42.74
2023-04-18T08:57:17.090Z,42.52
2023-04-18T08:58:17.186Z,42.55
2023-04-18T08:59:16.412Z,42.44
2023-04-18T09:00:17.283Z,42.44
2023-04-18T09:01:17.394Z,42.52
2023-04-18T09:02:17.467Z,42.56
2023-04-18T09:03:17.584Z,42.67
2023-04-18T09:04:17.625Z,42.63
2023-04-18T09:05:16.616Z,42.60
2023-04-18T09:06:16.667Z,42.59
2023-04-18T09:07:17.697Z,42.61
2023-04-18T09:08:17.749Z,42.60
2023-04-18T09:09:16.777Z,42.60
2023-04-18T09:10:17.795Z,42.61
2023-04-18T09:11:16.826Z,42.62
2023-04-18T09:12:17.842Z,42.66
2023-04-18T09:13:17.867Z,42.59
2023-04-18T09:14:18.097Z,42.58
2023-04-18T09:15:16.965Z,42.52
2023-04-18T09:16:17.072Z,42.53
2023-04-18T09:17:17.053Z,42.41
2023-04-18T09:18:18.082Z,42.47
2023-04-18T09:19:18.424Z,42.47
2023-04-18T09:20:18.146Z,42.47
2023-04-18T09:21:18.271Z,42.44
2023-04-18T09:22:18.218Z,42.47
2023-04-18T09:23:17.289Z,42.49
2023-04-18T09:24:18.311Z,42.47
2023-04-18T09:25:17.343Z,42.44
2023-04-18T09:26:17.420Z,42.44
2023-04-18T09:27:18.450Z,42.50
2023-04-18T09:28:18.538Z,42.53
2023-04-18T09:29:18.662Z,42.47
2023-04-18T09:30:18.662Z,42.47
2023-04-18T09:31:18.727Z,42.47
2023-04-18T09:32:18.771Z,42.50
2023-04-18T09:33:17.782Z,42.54
2023-04-18T09:34:18.835Z,42.58
2023-04-18T09:35:18.912Z,42.54
2023-04-18T09:36:17.972Z,42.45
2023-04-18T09:37:18.029Z,42.52
2023-04-18T09:38:19.127Z,42.46
2023-04-18T09:39:18.302Z,42.52
2023-04-18T09:40:19.235Z,42.50
2023-04-18T09:41:21.491Z,42.49
2023-04-18T09:42:18.298Z,42.52
2023-04-18T09:43:19.289Z,42.39
2023-04-18T09:44:18.606Z,42.29
2023-04-18T09:45:19.289Z,42.21
2023-04-18T09:46:18.647Z,42.21
2023-04-18T09:47:18.662Z,42.29
2023-04-18T09:48:19.286Z,42.25
2023-04-18T09:49:18.568Z,42.83
2023-04-18T09:50:19.237Z,42.73
2023-04-18T09:51:19.227Z,43.37
2023-04-18T09:52:18.694Z,43.21
2023-04-18T09:53:20.569Z,43.33
2023-04-18T09:54:18.421Z,43.58
2023-04-18T09:55:19.476Z,43.28
2023-04-18T09:56:18.515Z,43.52
2023-04-18T09:57:18.644Z,43.49
2023-04-18T09:58:18.643Z,43.62
2023-04-18T09:59:21.111Z,43.36
2023-04-18T10:00:18.821Z,43.33
2023-04-18T10:01:20.012Z,43.77
2023-04-18T10:02:20.200Z,43.87
2023-04-18T10:03:20.168Z,43.89
2023-04-18T10:04:19.033Z,43.70
2023-04-18T10:05:21.235Z,43.75
2023-04-18T10:06:20.047Z,44.24
2023-04-18T10:07:19.062Z,44.04
2023-04-18T10:08:20.133Z,43.87
2023-04-18T10:09:19.131Z,44.01
2023-04-18T10:10:20.170Z,43.88
2023-04-18T10:11:20.368Z,43.93
2023-04-18T10:12:20.270Z,44.19
2023-04-18T10:13:19.225Z,44.43
2023-04-18T10:14:19.242Z,44.89
2023-04-18T10:15:19.274Z,44.37
2023-04-18T10:16:20.499Z,44.54
2023-04-18T10:17:20.461Z,44.51
2023-04-18T10:18:20.422Z,44.63
2023-04-18T10:19:20.438Z,44.68
2023-04-18T10:20:19.345Z,44.84
2023-04-18T10:21:21.418Z,44.51
2023-04-18T10:22:20.318Z,44.63
2023-04-18T10:23:20.526Z,44.79
2023-04-18T10:24:19.306Z,44.83
2023-04-18T10:25:20.336Z,44.80
2023-04-18T10:26:20.301Z,44.93
2023-04-18T10:27:20.381Z,44.77
2023-04-18T10:28:20.387Z,44.85
2023-04-18T10:29:20.495Z,45.11
2023-04-18T10:30:20.399Z,45.21
2023-04-18T10:31:19.433Z,45.30
2023-04-18T10:32:20.463Z,45.26
2023-04-18T10:33:29.330Z,45.45
2023-04-18T10:34:20.826Z,45.79
2023-04-18T10:35:20.363Z,45.56
2023-04-18T10:36:20.366Z,45.75
2023-04-18T10:37:20.591Z,45.77
2023-04-18T10:38:20.392Z,45.95
2023-04-18T10:39:20.378Z,46.21
2023-04-18T10:40:19.450Z,46.24
2023-04-18T10:41:20.315Z,46.45
2023-04-18T10:42:19.664Z,46.11
2023-04-18T10:43:20.304Z,45.21
2023-04-18T10:44:19.292Z,45.32
2023-04-18T10:45:19.452Z,45.48
2023-04-18T10:46:31.048Z,45.45
2023-04-18T10:47:20.775Z,45.32
2023-04-18T10:48:19.328Z,45.40
2023-04-18T10:49:20.332Z,45.48
2023-04-18T10:50:20.276Z,45.60
2023-04-18T10:51:20.261Z,45.52
2023-04-18T10:52:19.266Z,45.49
2023-04-18T10:53:19.247Z,45.86
2023-04-18T10:54:20.331Z,46.07
2023-04-18T10:55:19.287Z,46.16
2023-04-18T10:56:20.233Z,46.20
2023-04-18T10:57:20.218Z,45.98
2023-04-18T10:58:20.205Z,45.89
2023-04-18T10:59:20.194Z,46.22
2023-04-18T11:00:20.308Z,46.20
2023-04-18T11:01:19.199Z,46.24
2023-04-18T11:02:20.314Z,46.28
2023-04-18T11:03:19.282Z,46.06
2023-04-18T11:04:19.473Z,46.27
2023-04-18T11:05:20.162Z,46.21
2023-04-18T11:06:19.232Z,46.21
2023-04-18T11:07:19.160Z,46.15
2023-04-18T11:08:19.134Z,46.24
2023-04-18T11:09:19.128Z,46.34
2023-04-18T11:10:19.150Z,46.30
2023-04-18T11:11:20.195Z,46.21
2023-04-18T11:12:20.259Z,46.55
2023-04-18T11:13:20.288Z,46.24
2023-04-18T11:14:20.326Z,46.21
2023-04-18T11:15:19.366Z,46.33
2023-04-18T11:16:20.426Z,46.56
2023-04-18T11:17:20.510Z,46.72
2023-04-18T11:18:20.535Z,46.24
2023-04-18T11:19:20.559Z,46.46
2023-04-18T11:20:20.659Z,46.46
2023-04-18T11:21:20.668Z,46.48
2023-04-18T11:22:19.829Z,46.45
2023-04-18T11:23:19.799Z,46.35
2023-04-18T11:24:20.876Z,46.18
2023-04-18T11:25:19.908Z,46.17
2023-04-18T11:26:19.958Z,46.54
2023-04-18T11:27:21.011Z,46.19
2023-04-18T11:28:20.057Z,46.20
2023-04-18T11:29:21.098Z,46.26
2023-04-18T11:30:21.147Z,46.29
2023-04-18T11:31:21.237Z,46.04
2023-04-18T11:32:21.464Z,46.21
2023-04-18T11:33:20.308Z,46.22
2023-04-18T11:34:21.337Z,45.98
2023-04-18T11:35:21.367Z,46.15
2023-04-18T11:36:21.437Z,46.11
2023-04-18T11:37:21.752Z,45.99
2023-04-18T11:38:23.890Z,46.11
2023-04-18T11:39:21.504Z,46.09
2023-04-18T11:40:21.497Z,46.02
2023-04-18T11:41:20.502Z,46.03
2023-04-18T11:42:20.718Z,46.17
2023-04-18T11:43:20.499Z,46.08
2023-04-18T11:44:21.475Z,45.99
2023-04-18T11:45:20.473Z,46.05
2023-04-18T11:46:20.501Z,46.09
2023-04-18T11:47:20.504Z,45.99
2023-04-18T11:48:21.456Z,46.06
2023-04-18T11:49:20.464Z,45.93
2023-04-18T11:50:21.451Z,46.03
2023-04-18T11:51:20.431Z,46.08
2023-04-18T11:52:21.439Z,45.97
2023-04-18T11:53:20.465Z,46.03
2023-04-18T11:54:20.452Z,45.98
2023-04-18T11:55:21.444Z,45.91
2023-04-18T11:56:20.384Z,46.00
2023-04-18T11:57:20.384Z,46.07
2023-04-18T11:58:20.368Z,46.01
2023-04-18T11:59:21.382Z,46.10
2023-04-18T12:00:20.369Z,46.08
2023-04-18T12:01:20.389Z,45.91
2023-04-18T12:02:20.587Z,45.91
2023-04-18T12:03:20.582Z,45.97
2023-04-18T12:04:21.132Z,45.92
2023-04-18T12:05:20.596Z,45.83
2023-04-18T12:06:21.499Z,45.87
2023-04-18T12:07:21.487Z,45.92
2023-04-18T12:08:20.528Z,45.92
2023-04-18T12:09:20.587Z,45.84
2023-04-18T12:10:20.617Z,45.98
2023-04-18T12:11:21.657Z,45.94
2023-04-18T12:12:21.711Z,45.88
2023-04-18T12:13:20.788Z,45.93
2023-04-18T12:14:20.806Z,45.98
2023-04-18T12:15:21.864Z,45.96
2023-04-18T12:16:20.979Z,45.94
2023-04-18T12:17:21.049Z,45.76
2023-04-18T12:18:22.050Z,45.82
2023-04-18T12:19:22.102Z,45.92
2023-04-18T12:20:21.150Z,45.45
2023-04-18T12:21:22.210Z,42.88
2023-04-18T12:22:21.736Z,43.83
2023-04-18T12:23:21.268Z,43.06
2023-04-18T12:24:22.291Z,43.59
2023-04-18T12:25:22.635Z,44.10
2023-04-18T12:26:21.294Z,44.69
2023-04-18T12:27:22.315Z,45.01
2023-04-18T12:28:21.288Z,44.73
2023-04-18T12:29:22.276Z,44.49
2023-04-18T12:30:22.269Z,44.19
2023-04-18T12:31:21.290Z,44.30
2023-04-18T12:32:21.385Z,44.27
2023-04-18T12:33:22.241Z,44.40
2023-04-18T12:34:21.246Z,44.33
2023-04-18T12:35:22.247Z,44.34
2023-04-18T12:36:22.233Z,44.12
2023-04-18T12:37:21.238Z,44.11
2023-04-18T12:38:22.213Z,44.06
2023-04-18T12:39:22.193Z,44.08
2023-04-18T12:40:21.290Z,44.09
2023-04-18T12:41:22.319Z,44.00
2023-04-18T12:42:21.187Z,43.92
2023-04-18T12:43:22.197Z,43.89
2023-04-18T12:44:21.195Z,43.84
2023-04-18T12:45:22.157Z,43.88
2023-04-18T12:46:21.216Z,43.86
2023-04-18T12:47:21.178Z,43.79
2023-04-18T12:48:22.132Z,43.74
2023-04-18T12:49:22.145Z,43.80
2023-04-18T12:50:22.149Z,43.71
2023-04-18T12:51:22.176Z,43.73
2023-04-18T12:52:21.334Z,43.77